sensor_id;sensor_type;location;lat;lon;timestamp;pressure;altitude;pressure_sealevel;temperature;humidity
25526;BME280;13424;48.424;11.258;2022-12-18T00:02:19;96614.81;;;-5.34;84.07
25526;BME280;13424;48.424;11.258;2022-12-18T00:04:45;96602.50;;;-5.43;84.27
25526;BME280;13424;48.424;11.258;2022-12-18T00:07:11;96612.09;;;-5.32;84.36
25526;BME280;13424;48.424;11.258;2022-12-18T00:09:37;96611.38;;;-5.23;84.39
25526;BME280;13424;48.424;11.258;2022-12-18T00:12:03;96616.69;;;-4.91;83.52
25526;BME280;13424;48.424;11.258;2022-12-18T00:14:29;96628.16;;;-4.71;81.97
25526;BME280;13424;48.424;11.258;2022-12-18T00:16:55;96628.63;;;-4.78;82.45
25526;BME280;13424;48.424;11.258;2022-12-18T00:19:20;96624.63;;;-5.04;83.15
25526;BME280;13424;48.424;11.258;2022-12-18T00:21:46;96627.47;;;-4.85;82.12
25526;BME280;13424;48.424;11.258;2022-12-18T00:24:12;96626.72;;;-4.75;82.23
25526;BME280;13424;48.424;11.258;2022-12-18T00:26:38;96627.47;;;-4.73;81.81
25526;BME280;13424;48.424;11.258;2022-12-18T00:29:11;96633.50;;;-4.73;82.66
25526;BME280;13424;48.424;11.258;2022-12-18T00:31:40;96642.19;;;-4.40;81.59
25526;BME280;13424;48.424;11.258;2022-12-18T00:34:06;96652.03;;;-4.44;81.32
25526;BME280;13424;48.424;11.258;2022-12-18T00:36:34;96660.59;;;-4.10;80.12
25526;BME280;13424;48.424;11.258;2022-12-18T00:39:06;96648.97;;;-4.49;81.61
25526;BME280;13424;48.424;11.258;2022-12-18T00:41:32;96643.72;;;-4.38;81.60
25526;BME280;13424;48.424;11.258;2022-12-18T00:44:17;96665.03;;;-4.33;81.06
25526;BME280;13424;48.424;11.258;2022-12-18T00:46:45;96666.00;;;-4.34;80.81
25526;BME280;13424;48.424;11.258;2022-12-18T00:49:19;96660.69;;;-4.55;81.93
25526;BME280;13424;48.424;11.258;2022-12-18T00:51:46;96657.25;;;-4.12;80.80
25526;BME280;13424;48.424;11.258;2022-12-18T00:54:12;96661.00;;;-3.94;81.13
25526;BME280;13424;48.424;11.258;2022-12-18T00:56:39;96665.41;;;-4.05;81.09
25526;BME280;13424;48.424;11.258;2022-12-18T00:59:05;96672.59;;;-4.18;81.05
25526;BME280;13424;48.424;11.258;2022-12-18T01:01:31;96667.41;;;-4.41;82.81
25526;BME280;13424;48.424;11.258;2022-12-18T01:04:02;96671.47;;;-4.48;82.13
25526;BME280;13424;48.424;11.258;2022-12-18T01:06:28;96677.22;;;-3.90;80.38
25526;BME280;13424;48.424;11.258;2022-12-18T01:08:55;96679.25;;;-3.94;79.89
25526;BME280;13424;48.424;11.258;2022-12-18T01:11:23;96676.88;;;-3.65;79.48
25526;BME280;13424;48.424;11.258;2022-12-18T01:13:49;96690.16;;;-3.15;77.71
25526;BME280;13424;48.424;11.258;2022-12-18T01:16:17;96683.38;;;-3.59;78.93
25526;BME280;13424;48.424;11.258;2022-12-18T01:18:43;96690.91;;;-3.45;78.23
25526;BME280;13424;48.424;11.258;2022-12-18T01:21:13;96691.06;;;-3.78;79.40
25526;BME280;13424;48.424;11.258;2022-12-18T01:23:39;96697.75;;;-3.97;79.31
25526;BME280;13424;48.424;11.258;2022-12-18T01:26:14;96703.00;;;-3.76;78.99
25526;BME280;13424;48.424;11.258;2022-12-18T01:28:41;96706.03;;;-3.59;78.85
25526;BME280;13424;48.424;11.258;2022-12-18T01:31:22;96708.16;;;-3.97;79.26
25526;BME280;13424;48.424;11.258;2022-12-18T01:33:50;96709.88;;;-3.75;79.39
25526;BME280;13424;48.424;11.258;2022-12-18T01:36:36;96714.94;;;-3.94;79.64
25526;BME280;13424;48.424;11.258;2022-12-18T01:39:07;96713.97;;;-3.61;79.15
25526;BME280;13424;48.424;11.258;2022-12-18T01:41:34;96697.25;;;-3.58;78.88
25526;BME280;13424;48.424;11.258;2022-12-18T01:47:45;96702.25;;;-4.42;81.44
25526;BME280;13424;48.424;11.258;2022-12-18T01:53:22;96702.19;;;-4.19;81.44
25526;BME280;13424;48.424;11.258;2022-12-18T01:55:52;96684.66;;;-4.17;81.32
25526;BME280;13424;48.424;11.258;2022-12-18T01:58:24;96682.41;;;-4.22;81.55
25526;BME280;13424;48.424;11.258;2022-12-18T02:00:54;96683.06;;;-4.41;81.53
25526;BME280;13424;48.424;11.258;2022-12-18T02:03:20;96685.63;;;-4.30;81.90
25526;BME280;13424;48.424;11.258;2022-12-18T02:08:50;96692.25;;;-3.82;79.95
25526;BME280;13424;48.424;11.258;2022-12-18T02:11:53;96694.72;;;-3.81;79.57
25526;BME280;13424;48.424;11.258;2022-12-18T02:23:00;96696.94;;;-3.44;78.75
25526;BME280;13424;48.424;11.258;2022-12-18T02:29:12;96686.53;;;-4.19;80.55
25526;BME280;13424;48.424;11.258;2022-12-18T02:31:47;96680.41;;;-4.30;82.08
25526;BME280;13424;48.424;11.258;2022-12-18T02:34:14;96690.94;;;-4.20;82.25
25526;BME280;13424;48.424;11.258;2022-12-18T02:36:43;96687.31;;;-4.51;83.00
25526;BME280;13424;48.424;11.258;2022-12-18T02:39:11;96691.13;;;-4.55;83.24
25526;BME280;13424;48.424;11.258;2022-12-18T02:41:43;96694.91;;;-4.82;84.91
25526;BME280;13424;48.424;11.258;2022-12-18T02:44:13;96691.22;;;-4.34;83.00
25526;BME280;13424;48.424;11.258;2022-12-18T02:46:52;96697.75;;;-4.62;84.17
25526;BME280;13424;48.424;11.258;2022-12-18T02:53:00;96687.88;;;-4.25;82.51
25526;BME280;13424;48.424;11.258;2022-12-18T02:56:01;96671.09;;;-4.55;83.17
25526;BME280;13424;48.424;11.258;2022-12-18T03:01:26;96670.72;;;-4.39;82.89
25526;BME280;13424;48.424;11.258;2022-12-18T03:04:05;96676.72;;;-3.84;80.52
25526;BME280;13424;48.424;11.258;2022-12-18T03:06:39;96694.59;;;-3.47;79.43
25526;BME280;13424;48.424;11.258;2022-12-18T03:09:34;96700.22;;;-3.31;78.89
25526;BME280;13424;48.424;11.258;2022-12-18T03:12:18;96704.91;;;-3.25;78.49
25526;BME280;13424;48.424;11.258;2022-12-18T03:15:28;96696.91;;;-3.65;79.72
25526;BME280;13424;48.424;11.258;2022-12-18T03:18:19;96685.25;;;-3.82;80.25
25526;BME280;13424;48.424;11.258;2022-12-18T03:20:47;96701.09;;;-3.21;78.47
25526;BME280;13424;48.424;11.258;2022-12-18T03:23:24;96702.81;;;-3.10;78.32
25526;BME280;13424;48.424;11.258;2022-12-18T03:25:54;96711.81;;;-3.24;78.27
25526;BME280;13424;48.424;11.258;2022-12-18T03:28:23;96706.03;;;-3.18;77.87
25526;BME280;13424;48.424;11.258;2022-12-18T03:30:58;96704.72;;;-3.12;77.61
25526;BME280;13424;48.424;11.258;2022-12-18T03:33:52;96702.56;;;-3.28;78.24
25526;BME280;13424;48.424;11.258;2022-12-18T03:36:19;96697.03;;;-3.14;78.08
25526;BME280;13424;48.424;11.258;2022-12-18T03:38:45;96686.06;;;-3.49;78.94
25526;BME280;13424;48.424;11.258;2022-12-18T03:41:31;96685.00;;;-3.47;79.88
25526;BME280;13424;48.424;11.258;2022-12-18T03:44:41;96700.94;;;-3.40;79.02
25526;BME280;13424;48.424;11.258;2022-12-18T03:47:27;96701.00;;;-3.51;79.23
25526;BME280;13424;48.424;11.258;2022-12-18T03:50:20;96707.97;;;-2.99;77.69
25526;BME280;13424;48.424;11.258;2022-12-18T03:55:57;96717.00;;;-2.82;77.69
25526;BME280;13424;48.424;11.258;2022-12-18T03:58:27;96710.56;;;-2.99;78.30
25526;BME280;13424;48.424;11.258;2022-12-18T04:01:13;96698.03;;;-3.26;79.30
25526;BME280;13424;48.424;11.258;2022-12-18T04:03:42;96702.28;;;-2.83;78.44
25526;BME280;13424;48.424;11.258;2022-12-18T04:06:09;96698.56;;;-2.81;78.09
25526;BME280;13424;48.424;11.258;2022-12-18T04:08:37;96703.16;;;-2.73;78.28
25526;BME280;13424;48.424;11.258;2022-12-18T04:11:06;96713.16;;;-2.78;77.44
25526;BME280;13424;48.424;11.258;2022-12-18T04:13:36;96715.53;;;-2.96;79.10
25526;BME280;13424;48.424;11.258;2022-12-18T04:16:05;96722.72;;;-2.88;78.77
25526;BME280;13424;48.424;11.258;2022-12-18T04:18:32;96711.59;;;-2.60;78.00
25526;BME280;13424;48.424;11.258;2022-12-18T04:20:59;96711.06;;;-2.54;77.43
25526;BME280;13424;48.424;11.258;2022-12-18T04:23:26;96701.44;;;-2.84;78.10
25526;BME280;13424;48.424;11.258;2022-12-18T04:25:55;96704.28;;;-2.66;77.74
25526;BME280;13424;48.424;11.258;2022-12-18T04:28:35;96702.56;;;-2.46;77.35
25526;BME280;13424;48.424;11.258;2022-12-18T04:31:02;96709.78;;;-2.29;77.26
25526;BME280;13424;48.424;11.258;2022-12-18T04:33:28;96713.47;;;-2.71;77.58
25526;BME280;13424;48.424;11.258;2022-12-18T04:39:22;96747.59;;;-3.26;80.41
25526;BME280;13424;48.424;11.258;2022-12-18T04:41:50;96747.50;;;-3.03;80.05
25526;BME280;13424;48.424;11.258;2022-12-18T04:44:17;96740.94;;;-3.19;80.11
25526;BME280;13424;48.424;11.258;2022-12-18T04:46:43;96743.69;;;-2.69;78.75
25526;BME280;13424;48.424;11.258;2022-12-18T04:49:09;96734.44;;;-3.03;79.02
25526;BME280;13424;48.424;11.258;2022-12-18T04:51:36;96733.00;;;-2.66;78.07
25526;BME280;13424;48.424;11.258;2022-12-18T04:54:02;96728.03;;;-2.69;78.49
25526;BME280;13424;48.424;11.258;2022-12-18T04:56:30;96734.22;;;-2.70;78.42
25526;BME280;13424;48.424;11.258;2022-12-18T05:03:03;96740.19;;;-3.30;80.20
25526;BME280;13424;48.424;11.258;2022-12-18T05:05:28;96742.72;;;-3.19;80.22
25526;BME280;13424;48.424;11.258;2022-12-18T05:07:54;96738.97;;;-3.47;81.66
25526;BME280;13424;48.424;11.258;2022-12-18T05:10:20;96740.53;;;-2.93;79.80
25526;BME280;13424;48.424;11.258;2022-12-18T05:12:46;96737.94;;;-2.93;79.78
25526;BME280;13424;48.424;11.258;2022-12-18T05:15:31;96740.47;;;-3.45;81.41
25526;BME280;13424;48.424;11.258;2022-12-18T05:17:58;96749.78;;;-3.31;80.84
25526;BME280;13424;48.424;11.258;2022-12-18T05:20:25;96744.56;;;-2.89;80.32
25526;BME280;13424;48.424;11.258;2022-12-18T05:22:52;96744.84;;;-2.62;78.22
25526;BME280;13424;48.424;11.258;2022-12-18T05:25:21;96739.03;;;-2.75;78.03
25526;BME280;13424;48.424;11.258;2022-12-18T05:27:47;96746.03;;;-2.75;79.37
25526;BME280;13424;48.424;11.258;2022-12-18T05:30:15;96750.00;;;-2.20;77.45
25526;BME280;13424;48.424;11.258;2022-12-18T05:32:41;96744.16;;;-2.33;77.69
25526;BME280;13424;48.424;11.258;2022-12-18T05:35:09;96741.31;;;-2.61;78.46
25526;BME280;13424;48.424;11.258;2022-12-18T05:37:44;96739.78;;;-2.54;78.20
25526;BME280;13424;48.424;11.258;2022-12-18T05:40:11;96741.31;;;-2.61;78.60
25526;BME280;13424;48.424;11.258;2022-12-18T05:42:37;96756.28;;;-2.22;77.38
25526;BME280;13424;48.424;11.258;2022-12-18T05:45:05;96757.84;;;-2.20;76.65
25526;BME280;13424;48.424;11.258;2022-12-18T05:47:31;96757.38;;;-2.56;77.56
25526;BME280;13424;48.424;11.258;2022-12-18T05:49:57;96765.13;;;-2.75;78.82
25526;BME280;13424;48.424;11.258;2022-12-18T05:52:23;96757.16;;;-2.73;78.41
25526;BME280;13424;48.424;11.258;2022-12-18T05:54:49;96755.19;;;-2.81;79.55
25526;BME280;13424;48.424;11.258;2022-12-18T05:57:15;96749.91;;;-3.12;80.14
25526;BME280;13424;48.424;11.258;2022-12-18T05:59:40;96761.88;;;-2.88;79.31
25526;BME280;13424;48.424;11.258;2022-12-18T06:02:06;96763.72;;;-2.79;79.51
25526;BME280;13424;48.424;11.258;2022-12-18T06:04:32;96760.38;;;-2.91;79.49
25526;BME280;13424;48.424;11.258;2022-12-18T06:06:58;96753.03;;;-2.97;79.94
25526;BME280;13424;48.424;11.258;2022-12-18T06:09:24;96750.94;;;-3.24;81.38
25526;BME280;13424;48.424;11.258;2022-12-18T06:11:51;96752.25;;;-3.09;80.35
25526;BME280;13424;48.424;11.258;2022-12-18T06:14:17;96754.63;;;-2.85;80.20
25526;BME280;13424;48.424;11.258;2022-12-18T06:16:43;96768.41;;;-2.83;80.08
25526;BME280;13424;48.424;11.258;2022-12-18T06:19:16;96767.53;;;-2.62;78.68
25526;BME280;13424;48.424;11.258;2022-12-18T06:21:43;96764.19;;;-2.43;78.73
25526;BME280;13424;48.424;11.258;2022-12-18T06:24:09;96764.69;;;-2.80;79.63
25526;BME280;13424;48.424;11.258;2022-12-18T06:26:38;96763.56;;;-3.08;80.98
25526;BME280;13424;48.424;11.258;2022-12-18T06:29:05;96765.31;;;-3.09;81.09
25526;BME280;13424;48.424;11.258;2022-12-18T06:31:31;96770.28;;;-2.85;80.30
25526;BME280;13424;48.424;11.258;2022-12-18T06:33:57;96771.13;;;-2.84;80.02
25526;BME280;13424;48.424;11.258;2022-12-18T06:36:23;96776.81;;;-2.48;79.75
25526;BME280;13424;48.424;11.258;2022-12-18T06:38:49;96779.31;;;-2.47;78.64
25526;BME280;13424;48.424;11.258;2022-12-18T06:41:20;96787.53;;;-2.51;79.23
25526;BME280;13424;48.424;11.258;2022-12-18T06:43:46;96792.84;;;-2.84;81.00
25526;BME280;13424;48.424;11.258;2022-12-18T06:46:21;96801.81;;;-2.56;79.71
25526;BME280;13424;48.424;11.258;2022-12-18T06:48:49;96794.66;;;-2.84;80.01
25526;BME280;13424;48.424;11.258;2022-12-18T06:51:20;96796.16;;;-2.82;80.33
25526;BME280;13424;48.424;11.258;2022-12-18T06:53:46;96794.03;;;-3.09;80.98
25526;BME280;13424;48.424;11.258;2022-12-18T06:56:12;96792.16;;;-3.06;80.79
25526;BME280;13424;48.424;11.258;2022-12-18T06:58:41;96803.59;;;-2.98;80.97
25526;BME280;13424;48.424;11.258;2022-12-18T07:01:10;96807.16;;;-2.78;80.01
25526;BME280;13424;48.424;11.258;2022-12-18T07:03:38;96821.38;;;-2.71;79.41
25526;BME280;13424;48.424;11.258;2022-12-18T07:06:05;96817.50;;;-2.97;80.82
25526;BME280;13424;48.424;11.258;2022-12-18T07:08:32;96814.41;;;-3.02;81.03
25526;BME280;13424;48.424;11.258;2022-12-18T07:10:58;96816.25;;;-3.46;81.97
25526;BME280;13424;48.424;11.258;2022-12-18T07:13:24;96804.72;;;-3.12;81.19
25526;BME280;13424;48.424;11.258;2022-12-18T07:15:50;96808.97;;;-2.99;80.54
25526;BME280;13424;48.424;11.258;2022-12-18T07:18:15;96809.22;;;-2.61;79.48
25526;BME280;13424;48.424;11.258;2022-12-18T07:20:41;96811.78;;;-2.91;79.90
25526;BME280;13424;48.424;11.258;2022-12-18T07:23:07;96815.97;;;-2.58;79.08
25526;BME280;13424;48.424;11.258;2022-12-18T07:25:36;96818.63;;;-2.48;78.48
25526;BME280;13424;48.424;11.258;2022-12-18T07:28:03;96825.78;;;-2.50;78.98
25526;BME280;13424;48.424;11.258;2022-12-18T07:30:29;96828.56;;;-1.81;77.01
25526;BME280;13424;48.424;11.258;2022-12-18T07:32:54;96823.69;;;-2.26;77.44
25526;BME280;13424;48.424;11.258;2022-12-18T07:35:23;96829.16;;;-2.81;79.26
25526;BME280;13424;48.424;11.258;2022-12-18T07:37:49;96831.41;;;-2.45;77.95
25526;BME280;13424;48.424;11.258;2022-12-18T07:40:15;96828.13;;;-2.47;78.91
25526;BME280;13424;48.424;11.258;2022-12-18T07:42:41;96823.53;;;-2.55;78.97
25526;BME280;13424;48.424;11.258;2022-12-18T07:45:07;96818.34;;;-2.45;78.44
25526;BME280;13424;48.424;11.258;2022-12-18T07:47:35;96823.13;;;-2.60;79.12
25526;BME280;13424;48.424;11.258;2022-12-18T07:50:03;96831.25;;;-2.54;78.72
25526;BME280;13424;48.424;11.258;2022-12-18T07:52:29;96826.31;;;-3.10;80.76
25526;BME280;13424;48.424;11.258;2022-12-18T07:54:54;96830.94;;;-2.81;79.86
25526;BME280;13424;48.424;11.258;2022-12-18T07:57:21;96834.97;;;-2.26;78.12
25526;BME280;13424;48.424;11.258;2022-12-18T07:59:48;96847.78;;;-2.22;77.33
25526;BME280;13424;48.424;11.258;2022-12-18T08:02:14;96847.00;;;-2.65;78.68
25526;BME280;13424;48.424;11.258;2022-12-18T08:04:40;96847.59;;;-3.14;80.12
25526;BME280;13424;48.424;11.258;2022-12-18T08:07:05;96837.75;;;-2.90;79.52
25526;BME280;13424;48.424;11.258;2022-12-18T08:09:31;96846.69;;;-2.92;79.78
25526;BME280;13424;48.424;11.258;2022-12-18T08:11:57;96845.25;;;-2.96;79.25
25526;BME280;13424;48.424;11.258;2022-12-18T08:14:23;96843.38;;;-2.73;78.41
25526;BME280;13424;48.424;11.258;2022-12-18T08:16:50;96849.03;;;-2.89;79.23
25526;BME280;13424;48.424;11.258;2022-12-18T08:19:16;96855.38;;;-2.61;78.97
25526;BME280;13424;48.424;11.258;2022-12-18T08:21:42;96856.31;;;-3.04;79.11
25526;BME280;13424;48.424;11.258;2022-12-18T08:24:09;96856.25;;;-3.14;79.99
25526;BME280;13424;48.424;11.258;2022-12-18T08:26:35;96850.28;;;-3.04;80.18
25526;BME280;13424;48.424;11.258;2022-12-18T08:29:01;96864.13;;;-2.72;79.06
25526;BME280;13424;48.424;11.258;2022-12-18T08:31:29;96869.53;;;-2.85;79.69
25526;BME280;13424;48.424;11.258;2022-12-18T08:33:55;96870.34;;;-3.05;79.91
25526;BME280;13424;48.424;11.258;2022-12-18T08:36:22;96869.03;;;-2.58;78.49
25526;BME280;13424;48.424;11.258;2022-12-18T08:38:48;96872.63;;;-2.59;78.09
25526;BME280;13424;48.424;11.258;2022-12-18T08:41:16;96871.69;;;-2.90;78.96
25526;BME280;13424;48.424;11.258;2022-12-18T08:43:42;96867.63;;;-2.62;78.90
25526;BME280;13424;48.424;11.258;2022-12-18T08:46:31;96865.22;;;-2.74;78.40
25526;BME280;13424;48.424;11.258;2022-12-18T08:48:57;96864.81;;;-2.91;79.54
25526;BME280;13424;48.424;11.258;2022-12-18T08:51:23;96877.00;;;-2.38;77.59
25526;BME280;13424;48.424;11.258;2022-12-18T08:53:49;96883.06;;;-2.59;78.07
25526;BME280;13424;48.424;11.258;2022-12-18T08:56:15;96874.56;;;-2.30;77.56
25526;BME280;13424;48.424;11.258;2022-12-18T08:58:41;96865.41;;;-2.45;76.97
25526;BME280;13424;48.424;11.258;2022-12-18T09:01:10;96862.06;;;-2.89;78.58
25526;BME280;13424;48.424;11.258;2022-12-18T09:03:36;96863.88;;;-2.69;78.73
25526;BME280;13424;48.424;11.258;2022-12-18T09:06:02;96864.16;;;-2.51;77.92
25526;BME280;13424;48.424;11.258;2022-12-18T09:08:28;96861.19;;;-2.78;78.80
25526;BME280;13424;48.424;11.258;2022-12-18T09:10:54;96875.69;;;-3.06;79.28
25526;BME280;13424;48.424;11.258;2022-12-18T09:13:20;96872.97;;;-3.16;79.85
25526;BME280;13424;48.424;11.258;2022-12-18T09:15:50;96867.44;;;-3.34;79.92
25526;BME280;13424;48.424;11.258;2022-12-18T09:18:18;96863.66;;;-3.30;80.45
25526;BME280;13424;48.424;11.258;2022-12-18T09:20:45;96863.75;;;-2.67;78.88
25526;BME280;13424;48.424;11.258;2022-12-18T09:23:11;96873.22;;;-2.25;76.87
25526;BME280;13424;48.424;11.258;2022-12-18T09:25:38;96866.72;;;-2.09;76.52
25526;BME280;13424;48.424;11.258;2022-12-18T09:28:10;96862.22;;;-2.28;75.32
25526;BME280;13424;48.424;11.258;2022-12-18T09:30:47;96860.44;;;-2.48;76.77
25526;BME280;13424;48.424;11.258;2022-12-18T09:33:15;96865.28;;;-2.65;76.97
25526;BME280;13424;48.424;11.258;2022-12-18T09:35:43;96863.59;;;-3.07;77.86
25526;BME280;13424;48.424;11.258;2022-12-18T09:38:20;96864.97;;;-2.50;77.54
25526;BME280;13424;48.424;11.258;2022-12-18T09:40:56;96863.06;;;-2.48;76.69
25526;BME280;13424;48.424;11.258;2022-12-18T09:46:01;96868.06;;;-2.15;76.46
25526;BME280;13424;48.424;11.258;2022-12-18T09:48:33;96857.63;;;-2.57;76.63
25526;BME280;13424;48.424;11.258;2022-12-18T09:51:05;96854.38;;;-2.70;76.64
25526;BME280;13424;48.424;11.258;2022-12-18T09:53:34;96852.53;;;-2.79;78.18
25526;BME280;13424;48.424;11.258;2022-12-18T09:56:02;96851.72;;;-3.12;78.75
25526;BME280;13424;48.424;11.258;2022-12-18T09:59:02;96848.72;;;-2.75;78.26
25526;BME280;13424;48.424;11.258;2022-12-18T10:01:30;96842.00;;;-2.89;78.90
25526;BME280;13424;48.424;11.258;2022-12-18T10:03:57;96831.69;;;-2.28;77.56
25526;BME280;13424;48.424;11.258;2022-12-18T10:12:00;96833.34;;;-1.27;73.00
25526;BME280;13424;48.424;11.258;2022-12-18T10:14:50;96836.91;;;-1.37;72.29
25526;BME280;13424;48.424;11.258;2022-12-18T10:18:02;96834.03;;;-1.94;73.64
25526;BME280;13424;48.424;11.258;2022-12-18T10:20:53;96829.59;;;-1.53;73.39
25526;BME280;13424;48.424;11.258;2022-12-18T10:26:11;96828.38;;;-1.39;72.32
25526;BME280;13424;48.424;11.258;2022-12-18T10:28:41;96826.13;;;-1.73;73.50
25526;BME280;13424;48.424;11.258;2022-12-18T10:31:22;96832.50;;;-1.56;73.01
25526;BME280;13424;48.424;11.258;2022-12-18T10:33:48;96829.41;;;-1.71;72.71
25526;BME280;13424;48.424;11.258;2022-12-18T10:36:14;96828.63;;;-1.43;72.16
25526;BME280;13424;48.424;11.258;2022-12-18T10:38:41;96842.44;;;-1.31;71.05
25526;BME280;13424;48.424;11.258;2022-12-18T10:41:27;96834.50;;;-2.10;71.80
25526;BME280;13424;48.424;11.258;2022-12-18T10:44:20;96841.22;;;-1.86;72.67
25526;BME280;13424;48.424;11.258;2022-12-18T10:46:48;96841.22;;;-1.86;72.61
25526;BME280;13424;48.424;11.258;2022-12-18T10:49:30;96843.56;;;-2.14;73.20
25526;BME280;13424;48.424;11.258;2022-12-18T10:52:18;96844.00;;;-2.81;74.98
25526;BME280;13424;48.424;11.258;2022-12-18T10:54:53;96854.06;;;-2.56;74.55
25526;BME280;13424;48.424;11.258;2022-12-18T10:59:55;96854.72;;;-2.42;74.65
25526;BME280;13424;48.424;11.258;2022-12-18T11:02:36;96854.13;;;-2.67;75.54
25526;BME280;13424;48.424;11.258;2022-12-18T11:05:24;96862.97;;;-2.37;74.62
25526;BME280;13424;48.424;11.258;2022-12-18T11:07:51;96847.44;;;-2.60;74.69
25526;BME280;13424;48.424;11.258;2022-12-18T11:10:23;96848.00;;;-2.56;74.94
25526;BME280;13424;48.424;11.258;2022-12-18T11:12:50;96841.94;;;-2.98;75.37
25526;BME280;13424;48.424;11.258;2022-12-18T11:15:26;96853.25;;;-2.56;75.01
25526;BME280;13424;48.424;11.258;2022-12-18T11:17:53;96853.47;;;-2.80;75.25
25526;BME280;13424;48.424;11.258;2022-12-18T11:20:29;96846.88;;;-2.42;74.60
25526;BME280;13424;48.424;11.258;2022-12-18T11:23:05;96844.25;;;-2.84;74.74
25526;BME280;13424;48.424;11.258;2022-12-18T11:25:35;96844.06;;;-2.50;74.38
25526;BME280;13424;48.424;11.258;2022-12-18T11:30:37;96839.00;;;-1.41;71.03
25526;BME280;13424;48.424;11.258;2022-12-18T11:33:19;96837.66;;;-1.26;71.38
25526;BME280;13424;48.424;11.258;2022-12-18T11:35:59;96825.59;;;-1.57;71.60
25526;BME280;13424;48.424;11.258;2022-12-18T11:38:34;96824.25;;;-1.03;70.17
25526;BME280;13424;48.424;11.258;2022-12-18T11:41:19;96831.03;;;-0.81;69.06
25526;BME280;13424;48.424;11.258;2022-12-18T11:43:54;96823.19;;;-1.01;70.30
25526;BME280;13424;48.424;11.258;2022-12-18T11:46:34;96819.84;;;-1.22;70.37
25526;BME280;13424;48.424;11.258;2022-12-18T11:49:18;96827.84;;;-0.66;69.61
25526;BME280;13424;48.424;11.258;2022-12-18T11:52:00;96823.44;;;-0.85;69.12
25526;BME280;13424;48.424;11.258;2022-12-18T11:54:28;96817.53;;;-0.87;69.92
25526;BME280;13424;48.424;11.258;2022-12-18T11:57:04;96823.41;;;-0.65;68.99
25526;BME280;13424;48.424;11.258;2022-12-18T12:00:02;96826.88;;;-0.55;68.00
25526;BME280;13424;48.424;11.258;2022-12-18T12:03:18;96822.13;;;-0.42;67.67
25526;BME280;13424;48.424;11.258;2022-12-18T12:06:49;96811.97;;;-0.54;68.50
25526;BME280;13424;48.424;11.258;2022-12-18T12:09:19;96812.56;;;-0.90;69.32
25526;BME280;13424;48.424;11.258;2022-12-18T12:18:35;96800.16;;;-1.17;70.38
25526;BME280;13424;48.424;11.258;2022-12-18T12:21:23;96799.75;;;-0.93;69.89
25526;BME280;13424;48.424;11.258;2022-12-18T12:24:34;96804.69;;;-0.90;70.52
25526;BME280;13424;48.424;11.258;2022-12-18T12:33:07;96790.03;;;-1.60;72.18
25526;BME280;13424;48.424;11.258;2022-12-18T12:38:25;96804.16;;;-1.91;72.76
25526;BME280;13424;48.424;11.258;2022-12-18T12:41:02;96798.03;;;-0.65;70.07
25526;BME280;13424;48.424;11.258;2022-12-18T12:43:46;96805.91;;;-0.55;69.36
25526;BME280;13424;48.424;11.258;2022-12-18T12:46:15;96807.94;;;-0.49;69.67
25526;BME280;13424;48.424;11.258;2022-12-18T12:49:02;96811.59;;;-0.79;69.57
25526;BME280;13424;48.424;11.258;2022-12-18T12:51:38;96801.66;;;-1.24;70.24
25526;BME280;13424;48.424;11.258;2022-12-18T12:54:14;96804.91;;;-1.70;72.12
25526;BME280;13424;48.424;11.258;2022-12-18T12:57:23;96816.44;;;-0.94;70.65
25526;BME280;13424;48.424;11.258;2022-12-18T12:59:56;96804.69;;;-1.38;71.17
25526;BME280;13424;48.424;11.258;2022-12-18T13:02:44;96791.44;;;-1.27;70.78
25526;BME280;13424;48.424;11.258;2022-12-18T13:05:40;96802.44;;;-0.56;69.49
25526;BME280;13424;48.424;11.258;2022-12-18T13:08:23;96803.28;;;-0.65;69.95
25526;BME280;13424;48.424;11.258;2022-12-18T13:10:50;96806.88;;;-1.53;71.95
25526;BME280;13424;48.424;11.258;2022-12-18T13:14:03;96805.69;;;-1.10;71.23
25526;BME280;13424;48.424;11.258;2022-12-18T13:16:29;96800.16;;;-1.26;70.89
25526;BME280;13424;48.424;11.258;2022-12-18T13:18:56;96797.00;;;-1.10;71.05
25526;BME280;13424;48.424;11.258;2022-12-18T13:21:33;96797.91;;;-1.50;72.37
25526;BME280;13424;48.424;11.258;2022-12-18T13:24:23;96803.84;;;-1.38;72.16
25526;BME280;13424;48.424;11.258;2022-12-18T13:26:53;96793.38;;;-1.19;71.56
25526;BME280;13424;48.424;11.258;2022-12-18T13:29:43;96792.03;;;-0.94;71.07
25526;BME280;13424;48.424;11.258;2022-12-18T13:32:22;96784.56;;;-1.37;71.88
25526;BME280;13424;48.424;11.258;2022-12-18T13:37:58;96784.44;;;-1.07;71.29
25526;BME280;13424;48.424;11.258;2022-12-18T13:46:04;96774.94;;;-1.18;72.45
25526;BME280;13424;48.424;11.258;2022-12-18T13:48:34;96771.13;;;-1.92;74.32
25526;BME280;13424;48.424;11.258;2022-12-18T13:51:07;96779.19;;;-1.07;72.47
25526;BME280;13424;48.424;11.258;2022-12-18T13:53:46;96777.25;;;-1.53;72.81
25526;BME280;13424;48.424;11.258;2022-12-18T13:56:23;96771.63;;;-1.29;72.88
25526;BME280;13424;48.424;11.258;2022-12-18T14:04:36;96784.63;;;-1.87;74.71
25526;BME280;13424;48.424;11.258;2022-12-18T14:07:25;96781.44;;;-1.91;75.05
25526;BME280;13424;48.424;11.258;2022-12-18T14:10:02;96798.31;;;-1.64;74.62
25526;BME280;13424;48.424;11.258;2022-12-18T14:12:33;96784.28;;;-1.54;74.01
25526;BME280;13424;48.424;11.258;2022-12-18T14:21:02;96789.84;;;-1.97;75.70
25526;BME280;13424;48.424;11.258;2022-12-18T14:26:19;96796.31;;;-1.91;75.48
25526;BME280;13424;48.424;11.258;2022-12-18T14:28:46;96795.81;;;-2.16;76.04
25526;BME280;13424;48.424;11.258;2022-12-18T14:31:25;96792.72;;;-1.90;75.13
25526;BME280;13424;48.424;11.258;2022-12-18T14:33:52;96800.34;;;-1.78;74.93
25526;BME280;13424;48.424;11.258;2022-12-18T14:36:25;96800.34;;;-2.18;76.44
25526;BME280;13424;48.424;11.258;2022-12-18T14:38:53;96801.88;;;-2.06;75.61
25526;BME280;13424;48.424;11.258;2022-12-18T14:41:21;96802.97;;;-1.68;75.18
25526;BME280;13424;48.424;11.258;2022-12-18T14:43:49;96801.31;;;-1.79;75.23
25526;BME280;13424;48.424;11.258;2022-12-18T14:46:35;96791.88;;;-2.01;74.78
25526;BME280;13424;48.424;11.258;2022-12-18T14:49:31;96794.13;;;-1.86;75.20
25526;BME280;13424;48.424;11.258;2022-12-18T14:52:06;96783.81;;;-2.28;76.56